Home   Weather   Austria   Knittelfeld   Past weeks
Flag for Austria

Past Weather in Knittelfeld, Styria, Austria — Yesterday and Last 2 Weeks

Currently: 39 °F. Passing clouds. (Weather station: Zeltweg, Austria). See more current weather

Past Weather in Knittelfeld — Graph

°F

Knittelfeld Temperature Yesterday

Maximum temperature yesterday: 59 °F (at 2:20 pm)
Minimum temperature yesterday: 28 °F (at 5:50 am)
Average temperature yesterday: 49 °F

High & Low Weather Summary for the Past Weeks

 TemperatureHumidityPressure
High72 °F (Mar 31, 3:50 pm)100% (Apr 2, 4:50 am)30.54 "Hg (Apr 2, 4:50 am)
Low18 °F (Apr 7, 4:50 am)20% (Mar 30, 4:50 pm)29.53 "Hg (Apr 5, 6:50 pm)
Average45 °F53%30.10 "Hg
* Reported Mar 26 9:50 pm — Apr 10 10:50 pm, Knittelfeld. Weather by CustomWeather, © 2021

Note: Actual official high and low records may vary slightly from our data, if they occured in-between our weather recording intervals... More about our weather records

Knittelfeld Weather History for the Previous 24 Hours

Scroll right to see more
 ConditionsComfort  
Time TempWeatherWind HumidityBarometerVisibility
10:50 pm
Sat, Apr 10
39 °FPassing clouds.6 mph70%30.01 "Hg19 mi
9:50 pm45 °FPassing clouds.8 mph57%30.01 "Hg19 mi
8:50 pm48 °FPassing clouds.8 mph50%30.01 "Hg19 mi
7:50 pm52 °FPassing clouds.9 mph44%30.01 "Hg19 mi
7:20 pm54 °FScattered clouds.10 mph41%29.98 "Hg19 mi
6:50 pm55 °FScattered clouds.13 mph38%29.98 "Hg19 mi
6:20 pm55 °FPassing clouds.16 mph38%30.01 "Hg19 mi
5:50 pm57 °FPassing clouds.16 mph36%30.01 "Hg19 mi
5:20 pm57 °FPassing clouds.13 mph36%30.01 "Hg19 mi
4:50 pm59 °FPassing clouds.14 mph36%30.01 "Hg19 mi
4:20 pm59 °FPartly sunny.15 mph34%30.01 "Hg19 mi
3:50 pm57 °FScattered clouds.16 mph39%30.01 "Hg19 mi
3:20 pm55 °FPartly sunny.17 mph38%30.01 "Hg19 mi
2:50 pm59 °FPartly sunny.15 mph34%30.01 "Hg19 mi
2:20 pm59 °FBroken clouds.15 mph34%30.01 "Hg19 mi
1:50 pm57 °FPartly sunny.13 mph36%30.04 "Hg19 mi
1:20 pm57 °FPartly sunny.12 mph41%30.04 "Hg19 mi
12:50 pm55 °FPartly sunny.9 mph38%30.04 "Hg19 mi
12:20 pm55 °FPartly sunny.12 mph41%30.04 "Hg19 mi
11:50 am54 °FPartly sunny.8 mph44%30.07 "Hg25 mi
11:20 am52 °FPartly sunny.8 mph47%30.07 "Hg25 mi
10:50 am52 °FPartly sunny.8 mph47%30.07 "Hg25 mi
10:20 am50 °FPartly sunny.9 mph47%30.07 "Hg25 mi
9:50 am46 °FPartly sunny.6 mph57%30.07 "Hg19 mi
9:20 am45 °FPartly sunny.5 mph57%30.09 "Hg19 mi
8:50 am41 °FPartly sunny.2 mph61%30.09 "Hg19 mi
8:20 am39 °FPartly sunny.No wind65%30.09 "Hg19 mi
7:50 am36 °FPartly sunny.5 mph75%30.09 "Hg19 mi
7:20 am32 °FClear.3 mph80%30.09 "Hg19 mi
6:50 am28 °FPartly sunny.1 mph86%30.09 "Hg19 mi
5:50 am28 °FPassing clouds.5 mph80%30.07 "Hg12 mi
4:50 am32 °FPassing clouds.2 mph80%30.09 "Hg12 mi
1:50 am39 °FPassing clouds.12 mph65%30.09 "Hg12 mi
Weather by CustomWeather, © 2021

See weather overview